createdAt,value
2023-03-19T00:01:35.540Z,100.00
2023-03-19T00:04:02.313Z,100.00
2023-03-19T00:06:28.875Z,100.00
2023-03-19T00:08:55.700Z,100.00
2023-03-19T00:11:22.542Z,100.00
2023-03-19T00:13:49.210Z,100.00
2023-03-19T00:16:16.053Z,100.00
2023-03-19T00:18:43.061Z,100.00
2023-03-19T00:21:09.830Z,100.00
2023-03-19T00:23:36.717Z,100.00
2023-03-19T00:26:04.151Z,100.00
2023-03-19T00:28:31.276Z,100.00
2023-03-19T00:30:58.020Z,100.00
2023-03-19T00:33:25.856Z,100.00
2023-03-19T00:35:52.401Z,100.00
2023-03-19T00:38:19.096Z,100.00
2023-03-19T00:40:45.635Z,100.00
2023-03-19T00:43:12.528Z,100.00
2023-03-19T00:45:39.084Z,100.00
2023-03-19T00:48:06.585Z,100.00
2023-03-19T00:50:33.217Z,100.00
2023-03-19T00:52:59.961Z,100.00
2023-03-19T00:55:27.396Z,100.00
2023-03-19T00:57:54.091Z,100.00
2023-03-19T01:00:20.873Z,100.00
2023-03-19T01:02:47.507Z,100.00
2023-03-19T01:05:15.071Z,100.00
2023-03-19T01:07:41.697Z,100.00
2023-03-19T01:10:09.823Z,100.00
2023-03-19T01:12:36.638Z,100.00
2023-03-19T01:15:07.022Z,100.00
2023-03-19T01:17:33.700Z,100.00
2023-03-19T01:20:00.229Z,100.00
2023-03-19T01:22:27.591Z,100.00
2023-03-19T01:24:57.792Z,100.00
2023-03-19T01:27:24.982Z,100.00
2023-03-19T01:29:51.799Z,100.00
2023-03-19T01:32:31.301Z,100.00
2023-03-19T01:35:27.130Z,100.00
2023-03-19T01:37:54.127Z,100.00
2023-03-19T01:40:21.578Z,100.00
2023-03-19T01:43:10.651Z,100.00
2023-03-19T01:45:48.057Z,100.00
2023-03-19T01:48:49.856Z,100.00
2023-03-19T01:51:23.892Z,100.00
2023-03-19T01:54:17.554Z,100.00
2023-03-19T01:57:07.823Z,100.00
2023-03-19T02:00:07.560Z,100.00
2023-03-19T02:02:44.885Z,100.00
2023-03-19T02:05:49.160Z,100.00
2023-03-19T02:08:19.138Z,100.00
2023-03-19T02:10:47.856Z,100.00
2023-03-19T02:13:15.789Z,100.00
2023-03-19T02:15:42.568Z,100.00
2023-03-19T02:18:09.997Z,100.00
2023-03-19T02:20:47.264Z,100.00
2023-03-19T02:23:24.226Z,100.00
2023-03-19T02:26:03.111Z,100.00
2023-03-19T02:28:31.858Z,100.00
2023-03-19T02:30:58.731Z,100.00
2023-03-19T02:33:25.526Z,100.00
2023-03-19T02:35:53.004Z,100.00
2023-03-19T02:38:23.125Z,100.00
2023-03-19T02:40:54.293Z,100.00
2023-03-19T02:43:22.033Z,100.00
2023-03-19T02:45:51.235Z,100.00
2023-03-19T02:48:18.361Z,100.00
2023-03-19T02:50:45.269Z,100.00
2023-03-19T02:53:12.532Z,100.00
2023-03-19T02:55:39.255Z,100.00
2023-03-19T02:58:05.985Z,100.00
2023-03-19T03:00:33.515Z,100.00
2023-03-19T03:03:01.796Z,100.00
2023-03-19T03:05:28.421Z,100.00
2023-03-19T03:07:55.109Z,100.00
2023-03-19T03:10:21.723Z,100.00
2023-03-19T03:12:48.275Z,100.00
2023-03-19T03:15:15.773Z,100.00
2023-03-19T03:17:45.113Z,100.00
2023-03-19T03:20:13.462Z,100.00
2023-03-19T03:22:40.870Z,100.00
2023-03-19T03:25:07.999Z,100.00
2023-03-19T03:27:34.886Z,100.00
2023-03-19T03:30:01.469Z,100.00
2023-03-19T03:32:28.051Z,100.00
2023-03-19T03:34:54.839Z,100.00
2023-03-19T03:37:21.545Z,100.00
2023-03-19T03:39:48.359Z,100.00
2023-03-19T03:42:15.374Z,100.00
2023-03-19T03:44:42.210Z,100.00
2023-03-19T03:47:09.341Z,100.00
2023-03-19T03:49:36.113Z,100.00
2023-03-19T03:52:02.795Z,100.00
2023-03-19T03:54:29.685Z,100.00
2023-03-19T03:56:56.606Z,100.00
2023-03-19T03:59:25.424Z,100.00
2023-03-19T04:01:52.148Z,100.00
2023-03-19T04:04:20.448Z,100.00
2023-03-19T04:06:47.183Z,100.00
2023-03-19T04:09:39.123Z,100.00
2023-03-19T04:12:06.022Z,100.00
2023-03-19T04:14:32.883Z,100.00
2023-03-19T04:16:59.781Z,100.00
2023-03-19T04:19:27.379Z,100.00
2023-03-19T04:21:54.627Z,100.00
2023-03-19T04:24:21.809Z,100.00
2023-03-19T04:26:49.819Z,100.00
2023-03-19T04:29:18.612Z,100.00
2023-03-19T04:31:45.627Z,100.00
2023-03-19T04:34:13.083Z,100.00
2023-03-19T04:36:40.100Z,100.00
2023-03-19T04:39:07.061Z,100.00
2023-03-19T04:41:34.375Z,100.00
2023-03-19T04:44:19.126Z,100.00
2023-03-19T04:46:46.476Z,100.00
2023-03-19T04:49:15.740Z,100.00
2023-03-19T04:51:42.986Z,100.00
2023-03-19T04:54:09.967Z,100.00
2023-03-19T04:56:37.227Z,100.00
2023-03-19T04:59:04.333Z,100.00
2023-03-19T05:01:32.991Z,100.00
2023-03-19T05:04:03.741Z,100.00
2023-03-19T05:06:33.311Z,100.00
2023-03-19T05:09:00.839Z,100.00
2023-03-19T05:11:27.519Z,100.00
2023-03-19T05:14:12.467Z,100.00
2023-03-19T05:16:55.028Z,100.00
2023-03-19T05:19:22.765Z,100.00
2023-03-19T05:21:49.919Z,100.00
2023-03-19T05:24:22.219Z,100.00
2023-03-19T05:26:49.827Z,100.00
2023-03-19T05:29:39.801Z,100.00
2023-03-19T05:32:17.172Z,100.00
2023-03-19T05:34:44.539Z,100.00
2023-03-19T05:37:11.610Z,100.00
2023-03-19T05:39:38.602Z,100.00
2023-03-19T05:42:08.657Z,100.00
2023-03-19T05:44:35.775Z,100.00
2023-03-19T05:47:35.092Z,100.00
2023-03-19T05:50:02.270Z,100.00
2023-03-19T05:52:29.976Z,100.00
2023-03-19T05:54:59.348Z,100.00
2023-03-19T05:57:45.184Z,100.00
2023-03-19T06:00:18.522Z,100.00
2023-03-19T06:02:47.640Z,100.00
2023-03-19T06:05:17.265Z,100.00
2023-03-19T06:07:44.801Z,100.00
2023-03-19T06:10:22.158Z,100.00
2023-03-19T06:12:53.049Z,100.00
2023-03-19T06:15:42.001Z,100.00
2023-03-19T06:18:23.631Z,100.00
2023-03-19T06:20:50.411Z,100.00
2023-03-19T06:23:17.923Z,100.00
2023-03-19T06:25:45.597Z,100.00
2023-03-19T06:28:12.914Z,100.00
2023-03-19T06:30:42.532Z,100.00
2023-03-19T06:33:32.157Z,100.00
2023-03-19T06:35:59.690Z,100.00
2023-03-19T06:38:27.185Z,100.00
2023-03-19T06:40:53.852Z,100.00
2023-03-19T06:43:20.684Z,100.00
2023-03-19T06:45:47.607Z,100.00
2023-03-19T06:48:14.538Z,100.00
2023-03-19T06:50:41.171Z,100.00
2023-03-19T06:53:07.903Z,100.00
2023-03-19T06:55:34.681Z,100.00
2023-03-19T06:58:01.398Z,100.00
2023-03-19T07:00:28.710Z,100.00
2023-03-19T07:02:55.725Z,100.00
2023-03-19T07:05:22.443Z,100.00
2023-03-19T07:07:49.388Z,100.00
2023-03-19T07:10:19.112Z,100.00
2023-03-19T07:12:45.960Z,100.00
2023-03-19T07:15:12.675Z,100.00
2023-03-19T07:17:39.651Z,100.00
2023-03-19T07:20:06.781Z,100.00
2023-03-19T07:22:33.590Z,100.00
2023-03-19T07:25:00.315Z,100.00
2023-03-19T07:27:27.149Z,100.00
2023-03-19T07:29:55.608Z,100.00
2023-03-19T07:32:23.451Z,100.00
2023-03-19T07:34:50.368Z,100.00
2023-03-19T07:37:17.376Z,100.00
2023-03-19T07:39:43.947Z,100.00
2023-03-19T07:42:10.874Z,100.00
2023-03-19T07:44:39.740Z,100.00
2023-03-19T07:47:08.187Z,100.00
2023-03-19T07:49:40.385Z,100.00
2023-03-19T07:52:07.645Z,100.00
2023-03-19T07:54:34.319Z,100.00
2023-03-19T07:57:00.944Z,100.00
2023-03-19T07:59:27.644Z,100.00
2023-03-19T08:01:54.413Z,100.00
2023-03-19T08:04:21.306Z,100.00
2023-03-19T08:06:49.074Z,100.00
2023-03-19T08:09:16.015Z,100.00
2023-03-19T08:11:42.732Z,100.00
2023-03-19T08:14:09.813Z,100.00
2023-03-19T08:16:36.531Z,100.00
2023-03-19T08:19:03.419Z,100.00
2023-03-19T08:21:30.208Z,100.00
2023-03-19T08:23:56.945Z,100.00
2023-03-19T08:26:23.625Z,100.00
2023-03-19T08:28:50.622Z,100.00
2023-03-19T08:31:17.192Z,100.00
2023-03-19T08:33:43.752Z,100.00
2023-03-19T08:36:13.195Z,100.00
2023-03-19T08:38:40.189Z,100.00
2023-03-19T08:41:07.069Z,100.00
2023-03-19T08:43:35.234Z,100.00
2023-03-19T08:46:01.844Z,100.00
2023-03-19T08:48:29.157Z,100.00
2023-03-19T08:50:57.962Z,100.00
2023-03-19T08:53:25.634Z,100.00
2023-03-19T08:55:59.814Z,100.00
2023-03-19T08:58:26.969Z,100.00
2023-03-19T09:00:54.204Z,100.00
2023-03-19T09:03:22.103Z,100.00
2023-03-19T09:05:48.731Z,100.00
2023-03-19T09:08:15.612Z,100.00
2023-03-19T09:10:42.689Z,100.00
2023-03-19T09:13:09.450Z,100.00
2023-03-19T09:15:36.412Z,100.00
2023-03-19T09:18:04.656Z,100.00
2023-03-19T09:20:31.346Z,100.00
2023-03-19T09:22:57.862Z,100.00
2023-03-19T09:25:24.709Z,100.00
2023-03-19T09:27:51.676Z,100.00
2023-03-19T09:30:18.456Z,100.00
2023-03-19T09:32:45.235Z,100.00
2023-03-19T09:35:12.073Z,100.00
2023-03-19T09:37:38.798Z,100.00
2023-03-19T09:40:06.671Z,100.00
2023-03-19T09:42:36.844Z,100.00
2023-03-19T09:45:04.620Z,100.00
2023-03-19T09:47:31.608Z,100.00
2023-03-19T09:50:04.147Z,100.00
2023-03-19T09:52:50.831Z,100.00
2023-03-19T09:55:34.399Z,100.00
2023-03-19T09:58:02.302Z,100.00
2023-03-19T10:00:33.843Z,99.62
2023-03-19T10:03:15.421Z,100.00
2023-03-19T10:06:06.660Z,100.00
2023-03-19T10:08:42.814Z,100.00
2023-03-19T10:11:32.712Z,100.00
2023-03-19T10:14:02.356Z,100.00
2023-03-19T10:16:30.723Z,100.00
2023-03-19T10:19:04.488Z,100.00
2023-03-19T10:21:37.449Z,100.00
2023-03-19T10:24:31.340Z,100.00
2023-03-19T10:27:05.706Z,100.00
2023-03-19T10:29:34.430Z,100.00
2023-03-19T10:32:14.986Z,99.16
2023-03-19T10:34:44.664Z,95.24
2023-03-19T10:37:27.219Z,98.74
2023-03-19T10:40:02.126Z,100.00
2023-03-19T10:43:10.712Z,97.47
2023-03-19T10:45:38.994Z,95.54
2023-03-19T10:48:06.485Z,91.77
2023-03-19T10:50:48.693Z,93.88
2023-03-19T10:53:15.165Z,90.70
2023-03-19T10:55:50.933Z,88.57
2023-03-19T10:58:20.460Z,83.33
2023-03-19T11:00:49.316Z,77.38
2023-03-19T11:03:31.813Z,77.23
2023-03-19T11:06:07.940Z,74.36
2023-03-19T11:08:36.649Z,73.05
2023-03-19T11:11:04.045Z,70.48
2023-03-19T11:13:34.166Z,69.31
2023-03-19T11:16:01.464Z,65.84
2023-03-19T11:18:31.780Z,66.86
2023-03-19T11:21:21.170Z,71.79
2023-03-19T11:23:53.241Z,65.77
2023-03-19T11:26:21.684Z,67.22
2023-03-19T11:28:52.149Z,71.78
2023-03-19T11:31:34.000Z,67.82
2023-03-19T11:34:13.972Z,67.70
2023-03-19T11:36:57.110Z,67.15
2023-03-19T11:39:39.001Z,69.39
2023-03-19T11:42:24.498Z,66.62
2023-03-19T11:45:12.356Z,67.81
2023-03-19T11:48:20.245Z,64.01
2023-03-19T11:51:04.152Z,68.02
2023-03-19T11:53:38.106Z,60.16
2023-03-19T11:56:15.390Z,60.07
2023-03-19T11:58:58.702Z,63.85
2023-03-19T12:01:28.575Z,64.84
2023-03-19T12:04:32.742Z,61.81
2023-03-19T12:07:38.680Z,55.33
2023-03-19T12:10:32.658Z,59.52
2023-03-19T12:13:41.946Z,51.01
2023-03-19T12:16:17.457Z,45.81
2023-03-19T12:19:22.050Z,48.01
2023-03-19T12:22:03.095Z,54.17
2023-03-19T12:25:11.773Z,62.06
2023-03-19T12:27:52.832Z,59.93
2023-03-19T12:30:45.021Z,62.34
2023-03-19T12:33:19.690Z,63.43
2023-03-19T12:35:50.203Z,65.22
2023-03-19T12:38:16.921Z,73.03
2023-03-19T12:40:57.103Z,60.45
2023-03-19T12:43:35.142Z,60.64
2023-03-19T12:46:14.304Z,60.08
2023-03-19T12:48:53.806Z,58.35
2023-03-19T12:51:26.682Z,58.35
2023-03-19T12:54:11.699Z,59.76
2023-03-19T12:56:55.754Z,62.07
2023-03-19T12:59:30.829Z,61.33
2023-03-19T13:02:04.076Z,60.57
2023-03-19T13:04:37.611Z,62.25
2023-03-19T13:07:20.395Z,60.19
2023-03-19T13:09:58.130Z,60.63
2023-03-19T13:12:35.426Z,56.79
2023-03-19T13:15:14.308Z,57.12
2023-03-19T13:17:47.010Z,55.78
2023-03-19T13:20:35.699Z,54.43
2023-03-19T13:23:06.769Z,52.12
2023-03-19T13:25:39.796Z,54.27
2023-03-19T13:28:30.878Z,47.65
2023-03-19T13:31:06.139Z,46.98
2023-03-19T13:33:40.701Z,44.07
2023-03-19T13:36:14.593Z,45.94
2023-03-19T13:38:46.811Z,47.17
2023-03-19T13:41:42.956Z,47.93
2023-03-19T13:44:22.059Z,47.16
2023-03-19T13:46:49.384Z,46.85
2023-03-19T13:49:29.897Z,47.80
2023-03-19T13:52:25.321Z,51.09
2023-03-19T13:54:56.771Z,48.62
2023-03-19T13:57:35.716Z,49.52
2023-03-19T14:00:42.865Z,46.23
2023-03-19T14:03:24.888Z,42.70
2023-03-19T14:05:54.883Z,45.19
2023-03-19T14:08:26.159Z,46.19
2023-03-19T14:10:57.351Z,45.13
2023-03-19T14:13:32.809Z,44.21
2023-03-19T14:16:23.975Z,44.38
2023-03-19T14:18:51.259Z,44.38
2023-03-19T14:21:39.864Z,43.38
2023-03-19T14:24:55.288Z,40.94
2023-03-19T14:27:21.801Z,44.73
2023-03-19T14:29:49.659Z,43.70
2023-03-19T14:32:19.424Z,46.47
2023-03-19T14:34:48.936Z,44.47
2023-03-19T14:37:28.769Z,44.58
2023-03-19T14:40:08.258Z,46.78
2023-03-19T14:42:44.439Z,49.79
2023-03-19T14:45:42.140Z,51.01
2023-03-19T14:48:24.344Z,48.83
2023-03-19T14:51:18.836Z,49.20
2023-03-19T14:54:21.647Z,46.35
2023-03-19T14:56:48.652Z,42.96
2023-03-19T14:59:15.973Z,44.26
2023-03-19T15:01:49.918Z,43.79
2023-03-19T15:04:17.931Z,44.67
2023-03-19T15:06:56.353Z,44.01
2023-03-19T15:09:31.855Z,47.51
2023-03-19T15:12:14.635Z,49.01
2023-03-19T15:15:06.192Z,46.92
2023-03-19T15:17:35.701Z,42.07
2023-03-19T15:20:13.260Z,40.02
2023-03-19T15:22:40.143Z,40.97
2023-03-19T15:25:12.879Z,41.44
2023-03-19T15:27:40.754Z,42.39
2023-03-19T15:30:29.561Z,42.74
2023-03-19T15:33:10.409Z,43.12
2023-03-19T15:35:39.383Z,45.91
2023-03-19T15:38:12.329Z,50.21
2023-03-19T15:40:41.583Z,51.57
2023-03-19T15:43:12.414Z,49.23
2023-03-19T15:45:42.660Z,50.30
2023-03-19T15:48:18.551Z,54.76
2023-03-19T15:50:47.190Z,62.49
2023-03-19T15:53:21.113Z,64.62
2023-03-19T15:55:52.243Z,70.49
2023-03-19T15:58:24.735Z,76.47
2023-03-19T16:00:54.123Z,82.34
2023-03-19T16:03:27.349Z,83.09
2023-03-19T16:06:12.463Z,83.20
2023-03-19T16:08:47.653Z,80.63
2023-03-19T16:11:36.137Z,78.11
2023-03-19T16:14:17.221Z,73.79
2023-03-19T16:16:47.298Z,71.54
2023-03-19T16:19:32.530Z,74.76
2023-03-19T16:22:00.951Z,75.00
2023-03-19T16:24:34.130Z,78.60
2023-03-19T16:27:04.691Z,72.65
2023-03-19T16:29:39.344Z,70.18
2023-03-19T16:32:14.581Z,72.28
2023-03-19T16:34:51.303Z,71.88
2023-03-19T16:37:30.319Z,72.18
2023-03-19T16:40:04.431Z,74.11
2023-03-19T16:42:34.107Z,76.27
2023-03-19T16:45:31.159Z,81.74
2023-03-19T16:48:00.112Z,86.85
2023-03-19T16:50:41.132Z,85.51
2023-03-19T16:53:29.866Z,89.79
2023-03-19T16:55:58.313Z,91.41
2023-03-19T16:58:42.674Z,97.59
2023-03-19T17:01:16.967Z,99.99
2023-03-19T17:03:45.196Z,100.00
2023-03-19T17:06:13.293Z,100.00
2023-03-19T17:08:40.814Z,100.00
2023-03-19T17:11:16.317Z,100.00
2023-03-19T17:13:43.862Z,100.00
2023-03-19T17:16:10.899Z,100.00
2023-03-19T17:18:42.044Z,100.00
2023-03-19T17:21:08.925Z,100.00
2023-03-19T17:23:35.912Z,100.00
2023-03-19T17:26:04.761Z,100.00
2023-03-19T17:28:32.400Z,100.00
2023-03-19T17:30:59.213Z,100.00
2023-03-19T17:33:29.562Z,100.00
2023-03-19T17:35:58.372Z,100.00
2023-03-19T17:38:32.899Z,100.00
2023-03-19T17:40:59.672Z,100.00
2023-03-19T17:43:26.398Z,100.00
2023-03-19T17:45:55.172Z,100.00
2023-03-19T17:48:25.783Z,100.00
2023-03-19T17:50:57.354Z,100.00
2023-03-19T17:53:23.803Z,100.00
2023-03-19T17:55:50.537Z,100.00
2023-03-19T17:58:19.550Z,100.00
2023-03-19T18:00:48.164Z,100.00
2023-03-19T18:03:17.829Z,100.00
2023-03-19T18:05:44.760Z,100.00
2023-03-19T18:08:16.656Z,100.00
2023-03-19T18:10:43.401Z,100.00
2023-03-19T18:13:10.946Z,100.00
2023-03-19T18:15:40.212Z,100.00
2023-03-19T18:18:15.403Z,100.00
2023-03-19T18:20:46.744Z,100.00
2023-03-19T18:23:16.105Z,100.00
2023-03-19T18:25:45.237Z,100.00
2023-03-19T18:28:12.420Z,100.00
2023-03-19T18:30:41.679Z,100.00
2023-03-19T18:33:20.099Z,100.00
2023-03-19T18:35:47.206Z,100.00
2023-03-19T18:38:21.257Z,100.00
2023-03-19T18:40:49.152Z,100.00
2023-03-19T18:43:16.555Z,100.00
2023-03-19T18:45:45.477Z,100.00
2023-03-19T18:48:31.469Z,100.00
2023-03-19T18:50:58.559Z,100.00
2023-03-19T18:53:25.878Z,100.00
2023-03-19T18:55:52.826Z,100.00
2023-03-19T18:58:23.631Z,100.00
2023-03-19T19:00:52.065Z,100.00
2023-03-19T19:03:22.863Z,100.00
2023-03-19T19:05:49.763Z,100.00
2023-03-19T19:08:19.086Z,100.00
2023-03-19T19:10:53.307Z,100.00
2023-03-19T19:13:28.384Z,100.00
2023-03-19T19:15:55.240Z,100.00
2023-03-19T19:18:24.659Z,100.00
2023-03-19T19:20:53.280Z,100.00
2023-03-19T19:23:21.573Z,100.00
2023-03-19T19:25:51.012Z,100.00
2023-03-19T19:28:22.049Z,100.00
2023-03-19T19:30:49.741Z,100.00
2023-03-19T19:33:21.854Z,100.00
2023-03-19T19:35:49.599Z,100.00
2023-03-19T19:38:16.293Z,100.00
2023-03-19T19:40:45.262Z,100.00
2023-03-19T19:43:18.681Z,100.00
2023-03-19T19:45:47.132Z,100.00
2023-03-19T19:48:17.296Z,100.00
2023-03-19T19:50:46.356Z,100.00
2023-03-19T19:53:13.656Z,100.00
2023-03-19T19:55:40.383Z,100.00
2023-03-19T19:58:15.672Z,100.00
2023-03-19T20:00:47.720Z,100.00
2023-03-19T20:03:24.189Z,100.00
2023-03-19T20:05:51.854Z,100.00
2023-03-19T20:08:19.454Z,100.00
2023-03-19T20:10:46.857Z,100.00
2023-03-19T20:13:30.332Z,100.00
2023-03-19T20:15:59.211Z,100.00
2023-03-19T20:18:30.931Z,100.00
2023-03-19T20:20:58.170Z,100.00
2023-03-19T20:23:24.822Z,100.00
2023-03-19T20:25:51.693Z,100.00
2023-03-19T20:28:24.713Z,100.00
2023-03-19T20:30:53.789Z,100.00
2023-03-19T20:33:21.819Z,100.00
2023-03-19T20:35:49.027Z,100.00
2023-03-19T20:38:16.130Z,100.00
2023-03-19T20:40:43.284Z,100.00
2023-03-19T20:43:23.203Z,100.00
2023-03-19T20:45:50.306Z,100.00
2023-03-19T20:48:17.117Z,100.00
2023-03-19T20:50:45.020Z,100.00
2023-03-19T20:53:11.813Z,100.00
2023-03-19T20:55:41.474Z,100.00
2023-03-19T20:58:30.910Z,100.00
2023-03-19T21:00:58.991Z,100.00
2023-03-19T21:03:28.636Z,100.00
2023-03-19T21:06:01.762Z,100.00
2023-03-19T21:08:42.542Z,100.00
2023-03-19T21:11:19.015Z,100.00
2023-03-19T21:13:47.941Z,100.00
2023-03-19T21:16:20.484Z,100.00
2023-03-19T21:18:48.168Z,100.00
2023-03-19T21:21:16.466Z,100.00
2023-03-19T21:23:54.715Z,100.00
2023-03-19T21:26:24.567Z,100.00
2023-03-19T21:29:01.870Z,100.00
2023-03-19T21:31:28.718Z,100.00
2023-03-19T21:33:58.239Z,100.00
2023-03-19T21:36:25.693Z,100.00
2023-03-19T21:38:52.426Z,100.00
2023-03-19T21:41:30.417Z,100.00
2023-03-19T21:44:01.327Z,100.00
2023-03-19T21:46:30.291Z,100.00
2023-03-19T21:48:58.719Z,100.00
2023-03-19T21:51:27.730Z,100.00
2023-03-19T21:53:54.886Z,100.00
2023-03-19T21:56:24.249Z,100.00
2023-03-19T21:58:52.782Z,100.00
2023-03-19T22:01:22.561Z,100.00
2023-03-19T22:03:49.794Z,100.00
2023-03-19T22:06:17.206Z,100.00
2023-03-19T22:08:48.785Z,100.00
2023-03-19T22:11:17.664Z,100.00
2023-03-19T22:13:44.691Z,100.00
2023-03-19T22:16:24.113Z,100.00
2023-03-19T22:18:52.064Z,100.00
2023-03-19T22:21:21.750Z,100.00
2023-03-19T22:23:48.947Z,100.00
2023-03-19T22:26:25.944Z,100.00
2023-03-19T22:28:53.407Z,100.00
2023-03-19T22:31:20.134Z,100.00
2023-03-19T22:33:48.769Z,100.00
2023-03-19T22:36:16.007Z,100.00
2023-03-19T22:38:47.056Z,100.00
2023-03-19T22:41:30.751Z,100.00
2023-03-19T22:43:58.669Z,100.00
2023-03-19T22:46:25.595Z,100.00
2023-03-19T22:48:52.404Z,100.00
2023-03-19T22:51:24.444Z,100.00
2023-03-19T22:53:51.481Z,100.00
2023-03-19T22:56:19.208Z,100.00
2023-03-19T22:58:46.953Z,100.00
2023-03-19T23:01:23.196Z,100.00
2023-03-19T23:03:50.888Z,100.00
2023-03-19T23:06:29.759Z,100.00
2023-03-19T23:08:58.062Z,100.00
2023-03-19T23:11:24.756Z,100.00
2023-03-19T23:13:51.756Z,100.00
2023-03-19T23:16:24.100Z,100.00
2023-03-19T23:18:51.635Z,100.00
2023-03-19T23:21:19.723Z,100.00
2023-03-19T23:23:46.642Z,100.00
2023-03-19T23:26:32.667Z,100.00
2023-03-19T23:29:03.639Z,100.00
2023-03-19T23:31:30.511Z,100.00
2023-03-19T23:33:57.421Z,100.00
2023-03-19T23:36:24.019Z,100.00
2023-03-19T23:38:51.659Z,100.00
2023-03-19T23:41:25.007Z,100.00
2023-03-19T23:43:59.373Z,100.00
2023-03-19T23:46:26.444Z,100.00
2023-03-19T23:48:53.041Z,100.00
2023-03-19T23:51:19.783Z,100.00
2023-03-19T23:53:46.817Z,100.00
2023-03-19T23:56:27.342Z,100.00
